Jenks, OK (74037)

7:04 PM CDT on May 27, 2017 (GMT -0500)
| | Change Station
Active Advisory: Tornado Watch

Elev -9999 ft 0.00 °N, 0.00 °E | Updated

Clear
Clear
°F
Feels Like °F
N
Wind Variable Wind from North
Gusts mph

Today
High -- | Low -- °F
--% Chance of Precip.
Yesterday
High -- | Low -- °F
Precip. -- in
Pressure 29.68 in
Visibility 10.0 miles
Clouds Clear
Dew Point Not available.
Humidity Not available.
Rainfall --
Snow Depth Not available.
6:10 AM 8:32 PM
Waxing Crescent, 7% visible
METAR KRVS 272353Z 19011G16KT 10SM CLR 31/24 A2968 RMK AO2 RAE07B17E27 TSE07B16E31 SLP051 P0000 60000 T03110244 10339 20306 58007
Pressure 29.68 in
Visibility 10.0 miles
Clouds Clear
Dew Point Not available.
Humidity Not available.
Rainfall --
Snow Depth Not available.
6:10 AM 8:32 PM
Waxing Crescent, 7% visible
METAR KRVS 272353Z 19011G16KT 10SM CLR 31/24 A2968 RMK AO2 RAE07B17E27 TSE07B16E31 SLP051 P0000 60000 T03110244 10339 20306 58007

Get Your Daily Forecast Email!

Thanks for signing up!

Be on the lookout for a verification email in your inbox.

You'll start receiving severe weather alerts in your inbox..

×

10-Day Weather Forecast

Almanac

Astronomy

May. 27, 2017 Rise Set
Actual Time
Civil Twilight
Nautical Twilight
Astronomical Twilight
Moon
Length of Visible Light
Length of Day
Tomorrow will be .
, % of the Moon is Illuminated

Today's Extremes

State Highs State Lows

Community

WunderPhotos

Category 6

Welcome to Category 6. This is the collective home for Weather Underground's featured writeups by Dr. Jeff Masters (right), Bob Henson (left), Chris Burt, and other regular contributors.

Nearby

Air Quality

  Air Quality AQ Index Pollutant
Not available.

Snow Depth

Station Depth Elevation

Earthquake Activity

City Distance Mag. Time & Date
Minimum magnitude displayed is 2.5.

Coastal Water Temperatures

Place Temperature

Stations

Nearby Weather Stations

Station Location Temp. Windchill Dew Point Humidity Wind Precip. Elev Updated Type
                   

Watches & Warnings

Tornado Watch
Issued: 6:43 PM CDT May. 27, 2017 – National Weather Service

Tornado Watch 279 remains in effect until 1200 am CDT for the
following locations

OK
. Oklahoma counties included are

Adair Atoka Bryan
Carter Cherokee Choctaw
Cleveland Coal Craig
creek Delaware Garvin
Haskell Hughes Johnston
Latimer Le Flore Lincoln
Logan Love McClain
McIntosh Marshall Mayes
Murray Muskogee Nowata
Okfuskee Oklahoma Okmulgee
Osage Ottawa Pawnee
Payne Pittsburg Pontotoc
Pottawatomie Pushmataha Rogers
Seminole Sequoyah Tulsa
Wagoner Washington